createdAt,value
2023-05-14T00:00:02.750Z,-18597.69
2023-05-14T00:02:30.258Z,-18597.69
2023-05-14T00:04:57.482Z,-18597.69
2023-05-14T00:07:31.023Z,-18597.69
2023-05-14T00:09:58.953Z,-18597.69
2023-05-14T00:12:26.786Z,-18597.69
2023-05-14T00:14:54.338Z,-18597.69
2023-05-14T00:17:21.414Z,-18597.69
2023-05-14T00:19:50.751Z,-18597.69
2023-05-14T00:22:17.591Z,-18597.69
2023-05-14T00:24:45.686Z,-18597.69
2023-05-14T00:27:12.494Z,-18597.69
2023-05-14T00:29:41.219Z,-18597.69
2023-05-14T00:32:08.561Z,-18597.69
2023-05-14T00:34:36.205Z,-18597.69
2023-05-14T00:37:05.290Z,-18597.69
2023-05-14T00:39:32.575Z,-18597.69
2023-05-14T00:41:59.510Z,-18597.69
2023-05-14T00:44:28.656Z,-18597.69
2023-05-14T00:46:56.415Z,-18597.69
2023-05-14T00:49:23.731Z,-18597.69
2023-05-14T00:51:51.131Z,-18597.69
2023-05-14T00:54:22.885Z,-18597.69
2023-05-14T00:56:51.071Z,-18597.69
2023-05-14T00:59:21.085Z,-18597.69
2023-05-14T01:01:48.174Z,-18597.69
2023-05-14T01:04:17.169Z,-18597.69
2023-05-14T01:07:05.421Z,-18597.69
2023-05-14T01:09:49.591Z,-18597.69
2023-05-14T01:12:45.631Z,-18597.69
2023-05-14T01:15:23.953Z,-18597.69
2023-05-14T01:17:59.509Z,-18597.69
2023-05-14T01:20:29.524Z,-18597.69
2023-05-14T01:22:57.706Z,-18597.69
2023-05-14T01:25:26.912Z,-18597.69
2023-05-14T01:28:12.869Z,-18597.69
2023-05-14T01:30:58.458Z,-18597.69
2023-05-14T01:33:27.180Z,-18597.69
2023-05-14T01:35:56.499Z,-18597.69
2023-05-14T01:38:24.278Z,-18597.69
2023-05-14T01:40:52.934Z,-18597.69
2023-05-14T01:43:21.258Z,-18597.69
2023-05-14T01:45:51.472Z,-18597.69
2023-05-14T01:48:18.741Z,-18597.69
2023-05-14T01:50:52.516Z,-18597.69
2023-05-14T01:53:19.451Z,-18597.69
2023-05-14T01:55:47.814Z,-18597.69
2023-05-14T01:58:15.012Z,-18597.69
2023-05-14T02:00:42.345Z,-18597.69
2023-05-14T02:03:10.233Z,-18597.69
2023-05-14T02:05:37.194Z,-18597.69
2023-05-14T02:08:05.546Z,-18597.69
2023-05-14T02:10:33.241Z,-18597.69
2023-05-14T02:13:01.577Z,-18597.69
2023-05-14T02:15:28.602Z,-18597.69
2023-05-14T02:17:55.468Z,-18597.69
2023-05-14T02:20:41.926Z,-18597.69
2023-05-14T02:23:08.882Z,-18597.69
2023-05-14T02:25:55.238Z,-18597.69
2023-05-14T02:28:22.076Z,-18597.69
2023-05-14T02:30:50.912Z,-18597.69
2023-05-14T02:33:17.979Z,-18597.69
2023-05-14T02:35:45.452Z,-18597.69
2023-05-14T02:38:13.924Z,-18597.69
2023-05-14T02:40:43.113Z,-18597.69
2023-05-14T02:43:10.341Z,-18597.69
2023-05-14T02:45:39.426Z,-18597.69
2023-05-14T02:48:06.963Z,-18597.69
2023-05-14T02:50:37.837Z,-18597.69
2023-05-14T02:53:04.885Z,-18597.69
2023-05-14T02:55:31.704Z,-18597.69
2023-05-14T02:57:58.985Z,-18597.69
2023-05-14T03:00:27.052Z,-18597.69
2023-05-14T03:02:54.485Z,-18597.69
2023-05-14T03:05:22.054Z,-18597.69
2023-05-14T03:08:03.001Z,-18597.69
2023-05-14T03:10:30.324Z,-18597.69
2023-05-14T03:12:57.712Z,-18597.69
2023-05-14T03:15:27.649Z,-18597.69
2023-05-14T03:18:04.260Z,-18597.69
2023-05-14T03:20:31.333Z,-18597.69
2023-05-14T03:22:58.806Z,-18597.69
2023-05-14T03:25:27.778Z,-18597.69
2023-05-14T03:27:54.707Z,-18597.69
2023-05-14T03:30:24.423Z,-18597.69
2023-05-14T03:32:52.279Z,-18597.69
2023-05-14T03:35:19.633Z,-18597.69
2023-05-14T03:37:46.591Z,-18597.69
2023-05-14T03:40:13.499Z,-18597.69
2023-05-14T03:42:40.971Z,-18597.69
2023-05-14T03:45:10.625Z,-18597.69
2023-05-14T03:47:39.726Z,-18597.69
2023-05-14T03:50:07.876Z,-18597.69
2023-05-14T03:52:35.967Z,-18597.69
2023-05-14T03:55:03.990Z,-18597.69
2023-05-14T03:57:31.318Z,-18597.69
2023-05-14T04:00:10.458Z,-18597.69
2023-05-14T04:02:46.090Z,-18597.69
2023-05-14T04:05:13.429Z,-18597.69
2023-05-14T04:07:40.573Z,-18597.69
2023-05-14T04:10:08.201Z,-18597.69
2023-05-14T04:12:36.221Z,117940.31
2023-05-14T04:15:04.417Z,117940.31
2023-05-14T04:17:32.659Z,117940.31
2023-05-14T04:20:01.173Z,117940.31
2023-05-14T04:22:30.768Z,117940.31
2023-05-14T04:24:57.627Z,117940.31
2023-05-14T04:27:24.587Z,117940.31
2023-05-14T04:29:51.628Z,117940.31
2023-05-14T04:32:18.642Z,117940.31
2023-05-14T04:34:48.007Z,117940.31
2023-05-14T04:37:15.180Z,117940.31
2023-05-14T04:39:47.506Z,117940.31
2023-05-14T04:42:14.302Z,117940.31
2023-05-14T04:44:49.346Z,117940.31
2023-05-14T04:47:16.414Z,117940.31
2023-05-14T04:49:48.703Z,117940.31
2023-05-14T04:52:15.875Z,117940.31
2023-05-14T04:54:45.165Z,117940.31
2023-05-14T04:57:13.520Z,117940.31
2023-05-14T04:59:40.990Z,117940.31
2023-05-14T05:02:08.071Z,117940.31
2023-05-14T05:04:35.357Z,117940.31
2023-05-14T05:07:02.297Z,117940.31
2023-05-14T05:09:30.614Z,117940.31
2023-05-14T05:11:57.704Z,117940.31
2023-05-14T05:14:24.969Z,117940.31
2023-05-14T05:16:53.081Z,117940.31
2023-05-14T05:19:26.535Z,117940.31
2023-05-14T05:21:59.726Z,117940.31
2023-05-14T05:24:34.556Z,117940.31
2023-05-14T05:27:01.426Z,117940.31
2023-05-14T05:29:28.259Z,117940.31
2023-05-14T05:31:55.642Z,117940.31
2023-05-14T05:34:24.747Z,117940.31
2023-05-14T05:36:52.008Z,117940.31
2023-05-14T05:39:20.953Z,117940.31
2023-05-14T05:41:47.938Z,117940.31
2023-05-14T05:44:15.341Z,117940.31
2023-05-14T05:46:43.445Z,117940.31
2023-05-14T05:49:10.244Z,117940.31
2023-05-14T05:51:39.348Z,117940.31
2023-05-14T05:54:07.520Z,117940.31
2023-05-14T05:56:34.384Z,117940.31
2023-05-14T05:59:04.173Z,117940.31
2023-05-14T06:01:31.162Z,117940.31
2023-05-14T06:03:58.203Z,117940.31
2023-05-14T06:06:40.989Z,117940.31
2023-05-14T06:09:09.131Z,117940.31
2023-05-14T06:11:36.498Z,117940.31
2023-05-14T06:14:10.588Z,117940.31
2023-05-14T06:16:37.586Z,117940.31
2023-05-14T06:19:04.990Z,117940.31
2023-05-14T06:21:32.492Z,117940.31
2023-05-14T06:23:59.810Z,117940.31
2023-05-14T06:26:26.518Z,117940.31
2023-05-14T06:28:53.520Z,117940.31
2023-05-14T06:31:20.513Z,117940.31
2023-05-14T06:33:47.723Z,117940.31
2023-05-14T06:36:15.812Z,117940.31
2023-05-14T06:38:42.906Z,117940.31
2023-05-14T06:41:10.202Z,117940.31
2023-05-14T06:43:37.080Z,117940.31
2023-05-14T06:46:06.089Z,117940.31
2023-05-14T06:48:33.150Z,117940.31
2023-05-14T06:51:00.154Z,117940.31
2023-05-14T06:53:28.008Z,117940.31
2023-05-14T06:55:54.919Z,117940.31
2023-05-14T06:58:22.058Z,117940.31
2023-05-14T07:00:49.211Z,117940.31
2023-05-14T07:03:16.073Z,117940.31
2023-05-14T07:05:45.445Z,117940.31
2023-05-14T07:08:13.863Z,117940.31
2023-05-14T07:10:40.830Z,117940.31
2023-05-14T07:13:08.457Z,117940.31
2023-05-14T07:15:35.541Z,117940.31
2023-05-14T07:18:02.818Z,117940.31
2023-05-14T07:20:32.507Z,117940.31
2023-05-14T07:23:00.339Z,117940.31
2023-05-14T07:25:27.791Z,110620.06
2023-05-14T07:27:54.871Z,62247.41
2023-05-14T07:30:23.094Z,79719.06
2023-05-14T07:32:50.327Z,94362.44
2023-05-14T07:35:17.330Z,98195.06
2023-05-14T07:37:44.332Z,106915.22
2023-05-14T07:40:14.496Z,84239.75
2023-05-14T07:42:41.597Z,75018.94
2023-05-14T07:45:09.992Z,65790.03
2023-05-14T07:47:37.093Z,77775.41
2023-05-14T07:50:05.470Z,88862.31
2023-05-14T07:52:32.636Z,90234.53
2023-05-14T07:55:01.727Z,110349.28
2023-05-14T07:57:28.725Z,113599.94
2023-05-14T07:59:57.309Z,107710.03
2023-05-14T08:02:24.973Z,114684.06
2023-05-14T08:04:52.427Z,117666.91
2023-05-14T08:07:21.325Z,117666.91
2023-05-14T08:09:48.642Z,115768.50
2023-05-14T08:12:18.143Z,114955.16
2023-05-14T08:14:45.180Z,113870.97
2023-05-14T08:17:14.261Z,114413.03
2023-05-14T08:19:41.309Z,110349.28
2023-05-14T08:22:08.465Z,107101.22
2023-05-14T08:24:35.676Z,107371.78
2023-05-14T08:27:02.737Z,105207.72
2023-05-14T08:29:29.783Z,104937.28
2023-05-14T08:31:58.247Z,102774.50
2023-05-14T08:34:26.661Z,98992.41
2023-05-14T08:36:54.097Z,99532.47
2023-05-14T08:39:22.571Z,97102.66
2023-05-14T08:41:49.982Z,98722.38
2023-05-14T08:44:23.590Z,89821.97
2023-05-14T08:46:52.050Z,86321.13
2023-05-14T08:49:36.715Z,82016.59
2023-05-14T08:52:04.442Z,80941.16
2023-05-14T08:54:32.696Z,83092.28
2023-05-14T08:56:59.868Z,82016.59
2023-05-14T08:59:27.258Z,85244.56
2023-05-14T09:01:56.418Z,76910.91
2023-05-14T09:04:25.653Z,80672.34
2023-05-14T09:06:54.733Z,78791.19
2023-05-14T09:09:23.334Z,78791.19
2023-05-14T09:11:52.673Z,76373.84
2023-05-14T09:14:20.673Z,73421.31
2023-05-14T09:16:49.871Z,73421.31
2023-05-14T09:19:19.496Z,69666.66
2023-05-14T09:21:48.927Z,73689.63
2023-05-14T09:24:24.129Z,65915.56
2023-05-14T09:26:55.359Z,71275.38
2023-05-14T09:29:25.239Z,70470.94
2023-05-14T09:31:52.637Z,70470.94
2023-05-14T09:34:30.967Z,65915.56
2023-05-14T09:37:01.879Z,69130.56
2023-05-14T09:39:29.999Z,69130.56
2023-05-14T09:41:57.378Z,68594.56
2023-05-14T09:44:25.576Z,64041.31
2023-05-14T09:46:54.122Z,65647.75
2023-05-14T09:49:22.554Z,67790.66
2023-05-14T09:51:50.549Z,61900.41
2023-05-14T09:54:17.934Z,63505.97
2023-05-14T09:56:44.973Z,64844.47
2023-05-14T09:59:13.270Z,63773.66
2023-05-14T10:01:43.515Z,64041.31
2023-05-14T10:04:12.407Z,61097.88
2023-05-14T10:06:42.287Z,65647.75
2023-05-14T10:09:14.272Z,80941.16
2023-05-14T10:11:45.565Z,86590.31
2023-05-14T10:14:24.974Z,82554.41
2023-05-14T10:16:53.605Z,83899.25
2023-05-14T10:19:24.054Z,86051.97
2023-05-14T10:21:57.580Z,86859.53
2023-05-14T10:24:25.632Z,79328.56
2023-05-14T10:26:53.504Z,81210.00
2023-05-14T10:29:21.000Z,71007.19
2023-05-14T10:31:56.256Z,72616.44
2023-05-14T10:34:43.515Z,74763.09
2023-05-14T10:37:12.130Z,75031.50
2023-05-14T10:39:49.798Z,75299.94
2023-05-14T10:42:24.430Z,77716.63
2023-05-14T10:45:01.822Z,64576.72
2023-05-14T10:47:29.316Z,69398.59
2023-05-14T10:49:58.309Z,64844.47
2023-05-14T10:52:25.975Z,64844.47
2023-05-14T10:54:56.495Z,70202.81
2023-05-14T10:57:26.440Z,69398.59
2023-05-14T10:59:58.388Z,66986.94
2023-05-14T11:02:39.777Z,59493.28
2023-05-14T11:05:17.781Z,50412.81
2023-05-14T11:07:47.627Z,51213.19
2023-05-14T11:10:18.248Z,52280.63
2023-05-14T11:12:47.505Z,56286.03
2023-05-14T11:15:16.636Z,54149.31
2023-05-14T11:17:45.260Z,62703.13
2023-05-14T11:20:13.002Z,77985.25
2023-05-14T11:22:41.505Z,86321.13
2023-05-14T11:25:09.779Z,89552.56
2023-05-14T11:27:40.015Z,93056.22
2023-05-14T11:30:14.471Z,94944.06
2023-05-14T11:32:42.034Z,99262.44
2023-05-14T11:35:09.137Z,99532.47
2023-05-14T11:37:36.462Z,100612.88
2023-05-14T11:40:10.418Z,102504.22
2023-05-14T11:42:38.596Z,104126.09
2023-05-14T11:45:06.529Z,107371.78
2023-05-14T11:47:33.703Z,107913.00
2023-05-14T11:50:01.701Z,111432.56
2023-05-14T11:52:28.745Z,110349.28
2023-05-14T11:54:55.566Z,108995.63
2023-05-14T11:57:23.291Z,110078.53
2023-05-14T11:59:58.182Z,108995.63
2023-05-14T12:02:29.719Z,104937.28
2023-05-14T12:04:57.782Z,108724.94
2023-05-14T12:07:30.978Z,108724.94
2023-05-14T12:10:01.855Z,110890.88
2023-05-14T12:12:36.374Z,112787.03
2023-05-14T12:15:10.611Z,111432.56
2023-05-14T12:17:38.109Z,114141.97
2023-05-14T12:20:08.761Z,114141.97
2023-05-14T12:22:37.083Z,113599.94
2023-05-14T12:25:04.460Z,115226.25
2023-05-14T12:27:31.704Z,115497.38
2023-05-14T12:32:36.436Z,114413.03
2023-05-14T12:35:04.129Z,113599.94
2023-05-14T12:37:31.380Z,113328.97
2023-05-14T12:39:58.649Z,114955.16
2023-05-14T12:42:25.730Z,114141.97
2023-05-14T12:44:53.022Z,112245.19
2023-05-14T12:47:19.954Z,114684.06
2023-05-14T12:49:46.695Z,113328.97
2023-05-14T12:54:43.749Z,110890.88
2023-05-14T12:57:10.768Z,114413.03
2023-05-14T12:59:38.011Z,113058.00
2023-05-14T13:02:05.962Z,114141.97
2023-05-14T13:04:33.016Z,113328.97
2023-05-14T13:07:00.595Z,112787.03
2023-05-14T13:09:28.731Z,112516.09
2023-05-14T13:11:56.495Z,114955.16
2023-05-14T13:14:23.866Z,114684.06
2023-05-14T13:16:50.988Z,114684.06
2023-05-14T13:19:17.888Z,110620.06
2023-05-14T13:21:44.951Z,111703.41
2023-05-14T13:24:11.868Z,113328.97
2023-05-14T13:26:39.482Z,112245.19
2023-05-14T13:29:07.022Z,112245.19
2023-05-14T13:31:34.277Z,112516.09
2023-05-14T13:34:02.756Z,111974.28
2023-05-14T13:36:32.622Z,112516.09
2023-05-14T13:38:59.432Z,111432.56
2023-05-14T13:41:26.738Z,110510.06
2023-05-14T13:43:53.958Z,109196.53
2023-05-14T13:46:22.257Z,112245.19
2023-05-14T13:48:49.251Z,101174.28
2023-05-14T13:51:16.748Z,91921.00
2023-05-14T13:53:44.896Z,94922.97
2023-05-14T13:56:12.255Z,101917.31
2023-05-14T13:58:39.327Z,102597.13
2023-05-14T14:01:06.627Z,92517.00
2023-05-14T14:03:33.771Z,92017.84
2023-05-14T14:06:01.086Z,87353.81
2023-05-14T14:08:27.944Z,75178.31
2023-05-14T14:10:55.682Z,99207.56
2023-05-14T14:13:23.284Z,89241.09
2023-05-14T14:15:50.521Z,80134.78
2023-05-14T14:18:17.554Z,74905.69
2023-05-14T14:20:44.831Z,87322.25
2023-05-14T14:23:11.899Z,82464.06
2023-05-14T14:25:38.931Z,81333.91
2023-05-14T14:28:05.744Z,78757.59
2023-05-14T14:30:33.371Z,69130.56
2023-05-14T14:33:01.536Z,48720.88
2023-05-14T14:35:29.065Z,26033.44
2023-05-14T14:37:55.901Z,72582.91
2023-05-14T14:40:24.090Z,71459.72
2023-05-14T14:42:51.120Z,77118.63
2023-05-14T14:45:18.381Z,77529.88
2023-05-14T14:47:46.875Z,83634.44
2023-05-14T14:50:13.964Z,76212.31
2023-05-14T14:52:45.674Z,70426.94
2023-05-14T14:55:13.251Z,55691.22
2023-05-14T14:57:40.641Z,45260.06
2023-05-14T15:00:08.129Z,65990.88
2023-05-14T15:02:35.689Z,65852.78
2023-05-14T15:05:03.349Z,60376.97
2023-05-14T15:07:33.154Z,92557.00
2023-05-14T15:10:00.665Z,86136.06
2023-05-14T15:12:27.935Z,99108.41
2023-05-14T15:14:55.160Z,94016.88
2023-05-14T15:17:22.196Z,97440.06
2023-05-14T15:19:49.087Z,101921.53
2023-05-14T15:22:16.232Z,87944.94
2023-05-14T15:24:43.041Z,88222.66
2023-05-14T15:27:10.710Z,60036.44
2023-05-14T15:29:37.919Z,47823.09
2023-05-14T15:32:06.040Z,37121.91
2023-05-14T15:34:33.014Z,33575.81
2023-05-14T15:37:00.065Z,36903.81
2023-05-14T15:39:28.467Z,26634.16
2023-05-14T15:41:56.882Z,27044.34
2023-05-14T15:44:24.131Z,45380.81
2023-05-14T15:46:55.685Z,44648.19
2023-05-14T15:49:22.481Z,37123.97
2023-05-14T15:51:49.929Z,31845.47
2023-05-14T15:54:18.907Z,29773.78
2023-05-14T15:56:47.020Z,30020.50
2023-05-14T15:59:15.287Z,31550.94
2023-05-14T16:01:42.279Z,37042.97
2023-05-14T16:04:09.383Z,49891.81
2023-05-14T16:06:36.672Z,60015.53
2023-05-14T16:09:03.969Z,49675.09
2023-05-14T16:11:30.810Z,52753.97
2023-05-14T16:13:59.008Z,53636.16
2023-05-14T16:16:27.112Z,50066.88
2023-05-14T16:18:54.073Z,44456.75
2023-05-14T16:21:21.074Z,47933.50
2023-05-14T16:23:48.157Z,34846.06
2023-05-14T16:26:15.488Z,43607.78
2023-05-14T16:28:42.863Z,51227.78
2023-05-14T16:31:09.957Z,48910.47
2023-05-14T16:33:36.939Z,45464.06
2023-05-14T16:36:04.453Z,46988.00
2023-05-14T16:38:31.338Z,38617.69
2023-05-14T16:40:59.279Z,39349.19
2023-05-14T16:43:26.628Z,30331.53
2023-05-14T16:45:54.165Z,26949.03
2023-05-14T16:48:21.839Z,26166.00
2023-05-14T16:50:51.484Z,24211.19
2023-05-14T16:53:18.242Z,19365.66
2023-05-14T16:55:45.351Z,22313.22
2023-05-14T16:58:14.457Z,16666.19
2023-05-14T17:00:41.458Z,16796.38
2023-05-14T17:03:08.569Z,21785.59
2023-05-14T17:05:36.413Z,26601.00
2023-05-14T17:08:04.985Z,18573.81
2023-05-14T17:10:33.509Z,22700.19
2023-05-14T17:13:00.757Z,14049.16
2023-05-14T17:15:28.062Z,11068.63
2023-05-14T17:18:05.220Z,8383.19
2023-05-14T17:20:32.373Z,2954.03
2023-05-14T17:23:01.455Z,3481.19
2023-05-14T17:25:28.777Z,2690.50
2023-05-14T17:27:55.847Z,2427.00
2023-05-14T17:30:23.418Z,-4418.16
2023-05-14T17:32:51.313Z,-6521.91
2023-05-14T17:35:19.851Z,-7836.19
2023-05-14T17:37:46.857Z,-6784.81
2023-05-14T17:40:14.129Z,-8098.97
2023-05-14T17:42:40.937Z,-12038.78
2023-05-14T17:45:09.376Z,-15187.72
2023-05-14T17:47:36.571Z,-12826.28
2023-05-14T17:50:03.931Z,-14138.38
2023-05-14T17:52:30.840Z,-14400.75
2023-05-14T17:54:57.701Z,-15712.31
2023-05-14T17:57:26.328Z,-17285.59
2023-05-14T17:59:53.532Z,-14400.75
2023-05-14T18:02:20.593Z,-13613.59
2023-05-14T18:04:47.679Z,-15450.03
2023-05-14T18:07:14.765Z,-12826.28
2023-05-14T18:09:48.822Z,-11776.25
2023-05-14T18:12:16.315Z,-3628.97
2023-05-14T18:14:52.828Z,-1260.38
2023-05-14T18:17:20.118Z,-4418.16
2023-05-14T18:19:49.079Z,-3365.84
2023-05-14T18:22:17.309Z,-1523.63
2023-05-14T18:24:44.582Z,-4681.19
2023-05-14T18:27:11.580Z,-7310.53
2023-05-14T18:29:45.897Z,-11776.25
2023-05-14T18:32:12.799Z,-10988.56
2023-05-14T18:34:39.831Z,-7573.38
2023-05-14T18:37:07.571Z,-7836.19
2023-05-14T18:39:40.027Z,-8361.75
2023-05-14T18:42:08.016Z,-8887.25
2023-05-14T18:44:35.004Z,-2839.59
2023-05-14T18:47:02.011Z,-3628.97
2023-05-14T18:49:30.330Z,-5207.22
2023-05-14T18:51:57.456Z,-6784.81
2023-05-14T18:54:25.643Z,-7047.69
2023-05-14T18:56:52.980Z,-7836.19
2023-05-14T18:59:20.349Z,-8098.97
2023-05-14T19:01:47.191Z,-9938.06
2023-05-14T19:04:15.439Z,-10988.56
2023-05-14T19:06:42.807Z,-12038.78
2023-05-14T19:09:12.111Z,-14138.38
2023-05-14T19:11:38.920Z,-15187.72
2023-05-14T19:14:07.027Z,-16761.22
2023-05-14T19:16:34.114Z,-17285.59
2023-05-14T19:19:01.150Z,-17547.72
2023-05-14T19:21:28.079Z,-18334.06
2023-05-14T19:23:54.994Z,-18596.16
2023-05-14T19:26:22.066Z,-18596.16
2023-05-14T19:28:49.056Z,-18597.69
2023-05-14T19:31:16.441Z,-18597.69
2023-05-14T19:33:44.534Z,-18597.69
2023-05-14T19:36:11.565Z,-18597.69
2023-05-14T19:38:38.551Z,-18597.69
2023-05-14T19:41:05.635Z,-18597.69
2023-05-14T19:43:32.534Z,-18597.69
2023-05-14T19:46:01.470Z,-18597.69
2023-05-14T19:48:31.753Z,-18597.69
2023-05-14T19:50:59.074Z,-18597.69
2023-05-14T19:53:30.156Z,-18597.69
2023-05-14T19:55:58.044Z,-18597.69
2023-05-14T19:58:27.093Z,-18597.69
2023-05-14T20:00:54.987Z,-18597.69
2023-05-14T20:03:27.921Z,-18597.69
2023-05-14T20:05:55.920Z,-18597.69
2023-05-14T20:08:22.851Z,-18597.69
2023-05-14T20:10:49.924Z,-18597.69
2023-05-14T20:13:18.052Z,-18597.69
2023-05-14T20:15:45.687Z,-18597.69
2023-05-14T20:18:14.303Z,-18597.69
2023-05-14T20:20:41.260Z,-18597.69
2023-05-14T20:23:08.465Z,-18597.69
2023-05-14T20:25:35.573Z,-18597.69
2023-05-14T20:28:02.467Z,-18597.69
2023-05-14T20:30:29.517Z,-18597.69
2023-05-14T20:32:56.893Z,-18597.69
2023-05-14T20:35:25.298Z,-18597.69
2023-05-14T20:37:52.632Z,-18597.69
2023-05-14T20:40:21.598Z,-18597.69
2023-05-14T20:42:50.525Z,-18597.69
2023-05-14T20:45:17.741Z,-18597.69
2023-05-14T20:47:45.048Z,-18597.69
2023-05-14T20:50:13.793Z,-18597.69
2023-05-14T20:52:41.126Z,-18597.69
2023-05-14T20:55:08.770Z,-18597.69
2023-05-14T20:57:35.680Z,-18597.69
2023-05-14T21:00:08.180Z,-18597.69
2023-05-14T21:02:35.684Z,-18597.69
2023-05-14T21:05:07.447Z,-18597.69
2023-05-14T21:07:34.497Z,-18597.69
2023-05-14T21:10:02.003Z,-18597.69
2023-05-14T21:12:28.947Z,-18597.69
2023-05-14T21:14:55.994Z,-18597.69
2023-05-14T21:17:23.107Z,-18597.69
2023-05-14T21:19:50.172Z,-18597.69
2023-05-14T21:22:17.167Z,-18597.69
2023-05-14T21:24:43.982Z,-18597.69
2023-05-14T21:27:11.021Z,-18597.69
2023-05-14T21:29:38.141Z,-18597.69
2023-05-14T21:32:05.739Z,-18597.69
2023-05-14T21:34:32.592Z,-18597.69
2023-05-14T21:37:01.887Z,-18597.69
2023-05-14T21:39:28.893Z,-18597.69
2023-05-14T21:41:55.947Z,-18597.69
2023-05-14T21:44:22.988Z,-18597.69
2023-05-14T21:46:50.354Z,-18597.69
2023-05-14T21:49:17.453Z,-18597.69
2023-05-14T21:51:44.771Z,-18597.69
2023-05-14T21:54:12.015Z,-18597.69
2023-05-14T21:56:40.074Z,-18597.69
2023-05-14T21:59:06.992Z,-18597.69
2023-05-14T22:01:38.571Z,-18597.69
2023-05-14T22:04:13.211Z,-18597.69
2023-05-14T22:06:40.148Z,-18597.69
2023-05-14T22:09:07.259Z,-18597.69
2023-05-14T22:11:34.205Z,-18597.69
2023-05-14T22:14:01.303Z,-18597.69
2023-05-14T22:16:28.663Z,-18597.69
2023-05-14T22:18:55.886Z,-18597.69
2023-05-14T22:21:23.047Z,-18597.69
2023-05-14T22:23:50.564Z,-18597.69
2023-05-14T22:26:17.919Z,-18597.69
2023-05-14T22:28:44.751Z,-18597.69
2023-05-14T22:31:11.763Z,-18597.69
2023-05-14T22:33:38.722Z,-18597.69
2023-05-14T22:36:07.201Z,-18597.69
2023-05-14T22:38:34.751Z,-18597.69
2023-05-14T22:41:01.674Z,-18597.69
2023-05-14T22:43:29.234Z,-18597.69
2023-05-14T22:45:56.263Z,-18597.69
2023-05-14T22:48:24.307Z,-18597.69
2023-05-14T22:50:52.542Z,-18597.69
2023-05-14T22:53:19.503Z,-18597.69
2023-05-14T22:55:46.655Z,-18597.69
2023-05-14T22:58:13.738Z,-18597.69
2023-05-14T23:00:40.749Z,-18597.69
2023-05-14T23:03:07.924Z,-18597.69
2023-05-14T23:05:34.920Z,-18597.69
2023-05-14T23:08:01.942Z,-18597.69
2023-05-14T23:10:29.094Z,-18597.69
2023-05-14T23:12:56.534Z,-18597.69
2023-05-14T23:15:23.628Z,-18597.69
2023-05-14T23:17:51.115Z,-18597.69
2023-05-14T23:20:18.355Z,-18597.69
2023-05-14T23:22:47.453Z,-18597.69
2023-05-14T23:25:14.420Z,-18597.69
2023-05-14T23:27:41.708Z,-18597.69
2023-05-14T23:30:11.366Z,-18597.69
2023-05-14T23:32:38.223Z,-18597.69
2023-05-14T23:35:05.734Z,-18597.69
2023-05-14T23:37:34.132Z,-18597.69
2023-05-14T23:40:02.459Z,-18597.69
2023-05-14T23:42:29.781Z,-18597.69
2023-05-14T23:44:56.978Z,-18597.69
2023-05-14T23:47:24.278Z,-18597.69
2023-05-14T23:49:51.300Z,-18597.69
2023-05-14T23:52:18.230Z,-18597.69
2023-05-14T23:54:46.288Z,-18597.69
2023-05-14T23:57:14.640Z,-18597.69
2023-05-14T23:59:41.779Z,-18597.69
